sensor_id;sensor_type;location;lat;lon;timestamp;P1;durP1;ratioP1;P2;durP2;ratioP2
52708;SDS011;38606;52.986;6.980;2024-01-07T00:01:46;16.77;;;10.65;;
52708;SDS011;38606;52.986;6.980;2024-01-07T00:04:14;19.55;;;11.10;;
52708;SDS011;38606;52.986;6.980;2024-01-07T00:06:43;16.60;;;10.13;;
52708;SDS011;38606;52.986;6.980;2024-01-07T00:09:10;17.05;;;11.00;;
52708;SDS011;38606;52.986;6.980;2024-01-07T00:11:37;17.88;;;11.07;;
52708;SDS011;38606;52.986;6.980;2024-01-07T00:14:04;17.90;;;10.63;;
52708;SDS011;38606;52.986;6.980;2024-01-07T00:16:30;14.68;;;10.20;;
52708;SDS011;38606;52.986;6.980;2024-01-07T00:18:56;15.88;;;10.75;;
52708;SDS011;38606;52.986;6.980;2024-01-07T00:21:22;16.13;;;11.13;;
52708;SDS011;38606;52.986;6.980;2024-01-07T00:23:49;16.23;;;10.32;;
52708;SDS011;38606;52.986;6.980;2024-01-07T00:26:15;15.70;;;10.73;;
52708;SDS011;38606;52.986;6.980;2024-01-07T00:28:41;15.10;;;10.05;;
52708;SDS011;38606;52.986;6.980;2024-01-07T00:31:07;18.02;;;10.95;;
52708;SDS011;38606;52.986;6.980;2024-01-07T00:33:34;15.60;;;10.27;;
52708;SDS011;38606;52.986;6.980;2024-01-07T00:36:00;15.70;;;10.18;;
52708;SDS011;38606;52.986;6.980;2024-01-07T00:38:26;16.50;;;9.57;;
52708;SDS011;38606;52.986;6.980;2024-01-07T00:40:52;14.30;;;9.60;;
52708;SDS011;38606;52.986;6.980;2024-01-07T00:43:18;14.65;;;10.02;;
52708;SDS011;38606;52.986;6.980;2024-01-07T00:45:44;20.33;;;9.75;;
52708;SDS011;38606;52.986;6.980;2024-01-07T00:48:10;16.70;;;10.18;;
52708;SDS011;38606;52.986;6.980;2024-01-07T00:50:36;17.33;;;10.13;;
52708;SDS011;38606;52.986;6.980;2024-01-07T00:53:02;18.15;;;10.80;;
52708;SDS011;38606;52.986;6.980;2024-01-07T00:55:27;19.88;;;10.70;;
52708;SDS011;38606;52.986;6.980;2024-01-07T00:57:54;16.95;;;10.15;;
52708;SDS011;38606;52.986;6.980;2024-01-07T01:00:20;15.68;;;9.60;;
52708;SDS011;38606;52.986;6.980;2024-01-07T01:02:47;15.68;;;11.02;;
52708;SDS011;38606;52.986;6.980;2024-01-07T01:05:13;16.42;;;10.10;;
52708;SDS011;38606;52.986;6.980;2024-01-07T01:07:39;17.33;;;11.00;;
52708;SDS011;38606;52.986;6.980;2024-01-07T01:10:05;15.73;;;10.00;;
52708;SDS011;38606;52.986;6.980;2024-01-07T01:12:31;16.45;;;9.95;;
52708;SDS011;38606;52.986;6.980;2024-01-07T01:14:57;18.17;;;10.18;;
52708;SDS011;38606;52.986;6.980;2024-01-07T01:17:23;14.57;;;9.40;;
52708;SDS011;38606;52.986;6.980;2024-01-07T01:19:49;15.27;;;9.85;;
52708;SDS011;38606;52.986;6.980;2024-01-07T01:22:15;16.40;;;9.75;;
52708;SDS011;38606;52.986;6.980;2024-01-07T01:24:41;12.82;;;9.25;;
52708;SDS011;38606;52.986;6.980;2024-01-07T01:27:10;17.30;;;9.93;;
52708;SDS011;38606;52.986;6.980;2024-01-07T01:29:37;16.42;;;10.07;;
52708;SDS011;38606;52.986;6.980;2024-01-07T01:32:03;12.98;;;8.82;;
52708;SDS011;38606;52.986;6.980;2024-01-07T01:34:29;14.82;;;9.48;;
52708;SDS011;38606;52.986;6.980;2024-01-07T01:36:55;13.68;;;9.88;;
52708;SDS011;38606;52.986;6.980;2024-01-07T01:39:21;17.75;;;10.15;;
52708;SDS011;38606;52.986;6.980;2024-01-07T01:41:47;15.80;;;9.32;;
52708;SDS011;38606;52.986;6.980;2024-01-07T01:44:13;13.57;;;9.05;;
52708;SDS011;38606;52.986;6.980;2024-01-07T01:46:39;12.93;;;9.02;;
52708;SDS011;38606;52.986;6.980;2024-01-07T01:49:06;13.45;;;8.15;;
52708;SDS011;38606;52.986;6.980;2024-01-07T01:51:33;14.82;;;8.85;;
52708;SDS011;38606;52.986;6.980;2024-01-07T01:53:59;12.38;;;8.68;;
52708;SDS011;38606;52.986;6.980;2024-01-07T01:56:26;14.93;;;8.63;;
52708;SDS011;38606;52.986;6.980;2024-01-07T01:58:53;14.18;;;8.60;;
52708;SDS011;38606;52.986;6.980;2024-01-07T02:01:19;13.10;;;8.00;;
52708;SDS011;38606;52.986;6.980;2024-01-07T02:03:45;15.73;;;8.68;;
52708;SDS011;38606;52.986;6.980;2024-01-07T02:06:11;15.05;;;8.60;;
52708;SDS011;38606;52.986;6.980;2024-01-07T02:08:38;12.55;;;8.35;;
52708;SDS011;38606;52.986;6.980;2024-01-07T02:11:17;13.60;;;7.68;;
52708;SDS011;38606;52.986;6.980;2024-01-07T02:13:43;11.68;;;8.15;;
52708;SDS011;38606;52.986;6.980;2024-01-07T02:16:09;11.82;;;6.72;;
52708;SDS011;38606;52.986;6.980;2024-01-07T02:18:36;11.95;;;7.60;;
52708;SDS011;38606;52.986;6.980;2024-01-07T02:21:02;14.35;;;8.07;;
52708;SDS011;38606;52.986;6.980;2024-01-07T02:23:29;11.77;;;7.70;;
52708;SDS011;38606;52.986;6.980;2024-01-07T02:25:55;11.38;;;7.55;;
52708;SDS011;38606;52.986;6.980;2024-01-07T02:28:21;12.25;;;7.78;;
52708;SDS011;38606;52.986;6.980;2024-01-07T02:30:47;11.15;;;7.13;;
52708;SDS011;38606;52.986;6.980;2024-01-07T02:33:13;12.63;;;6.45;;
52708;SDS011;38606;52.986;6.980;2024-01-07T02:35:39;12.32;;;7.05;;
52708;SDS011;38606;52.986;6.980;2024-01-07T02:38:05;10.73;;;6.82;;
52708;SDS011;38606;52.986;6.980;2024-01-07T02:40:30;12.48;;;6.90;;
52708;SDS011;38606;52.986;6.980;2024-01-07T02:42:57;8.77;;;5.93;;
52708;SDS011;38606;52.986;6.980;2024-01-07T02:45:23;8.68;;;5.80;;
52708;SDS011;38606;52.986;6.980;2024-01-07T02:47:49;11.30;;;6.10;;
52708;SDS011;38606;52.986;6.980;2024-01-07T02:50:15;11.48;;;6.53;;
52708;SDS011;38606;52.986;6.980;2024-01-07T02:52:41;12.32;;;6.03;;
52708;SDS011;38606;52.986;6.980;2024-01-07T02:55:07;9.75;;;5.80;;
52708;SDS011;38606;52.986;6.980;2024-01-07T02:57:33;10.18;;;6.07;;
52708;SDS011;38606;52.986;6.980;2024-01-07T02:59:59;11.23;;;6.03;;
52708;SDS011;38606;52.986;6.980;2024-01-07T03:02:25;8.15;;;5.90;;
52708;SDS011;38606;52.986;6.980;2024-01-07T03:04:51;8.35;;;5.45;;
52708;SDS011;38606;52.986;6.980;2024-01-07T03:07:17;10.40;;;6.20;;
52708;SDS011;38606;52.986;6.980;2024-01-07T03:09:43;8.43;;;6.57;;
52708;SDS011;38606;52.986;6.980;2024-01-07T03:12:09;10.57;;;5.90;;
52708;SDS011;38606;52.986;6.980;2024-01-07T03:14:34;8.55;;;5.82;;
52708;SDS011;38606;52.986;6.980;2024-01-07T03:17:01;8.93;;;5.70;;
52708;SDS011;38606;52.986;6.980;2024-01-07T03:19:27;11.00;;;5.88;;
52708;SDS011;38606;52.986;6.980;2024-01-07T03:21:52;10.70;;;5.82;;
52708;SDS011;38606;52.986;6.980;2024-01-07T03:24:18;8.65;;;5.63;;
52708;SDS011;38606;52.986;6.980;2024-01-07T03:26:44;7.90;;;5.30;;
52708;SDS011;38606;52.986;6.980;2024-01-07T03:29:10;7.72;;;5.22;;
52708;SDS011;38606;52.986;6.980;2024-01-07T03:31:36;10.85;;;5.93;;
52708;SDS011;38606;52.986;6.980;2024-01-07T03:34:03;9.23;;;5.47;;
52708;SDS011;38606;52.986;6.980;2024-01-07T03:36:29;11.25;;;5.75;;
52708;SDS011;38606;52.986;6.980;2024-01-07T03:38:55;12.98;;;5.95;;
52708;SDS011;38606;52.986;6.980;2024-01-07T03:41:21;10.00;;;5.55;;
52708;SDS011;38606;52.986;6.980;2024-01-07T03:43:47;6.85;;;4.68;;
52708;SDS011;38606;52.986;6.980;2024-01-07T03:46:14;8.18;;;5.13;;
52708;SDS011;38606;52.986;6.980;2024-01-07T03:48:40;7.28;;;5.00;;
52708;SDS011;38606;52.986;6.980;2024-01-07T03:51:07;8.15;;;4.82;;
52708;SDS011;38606;52.986;6.980;2024-01-07T03:53:33;10.95;;;4.97;;
52708;SDS011;38606;52.986;6.980;2024-01-07T03:55:59;9.20;;;4.85;;
52708;SDS011;38606;52.986;6.980;2024-01-07T03:58:25;6.88;;;3.97;;
52708;SDS011;38606;52.986;6.980;2024-01-07T04:00:51;9.50;;;5.45;;
52708;SDS011;38606;52.986;6.980;2024-01-07T04:03:17;8.82;;;4.45;;
52708;SDS011;38606;52.986;6.980;2024-01-07T04:05:44;8.05;;;4.32;;
52708;SDS011;38606;52.986;6.980;2024-01-07T04:08:12;6.97;;;4.47;;
52708;SDS011;38606;52.986;6.980;2024-01-07T04:10:40;8.38;;;4.90;;
52708;SDS011;38606;52.986;6.980;2024-01-07T04:13:06;6.15;;;3.88;;
52708;SDS011;38606;52.986;6.980;2024-01-07T04:15:33;8.40;;;4.20;;
52708;SDS011;38606;52.986;6.980;2024-01-07T04:18:02;7.93;;;4.38;;
52708;SDS011;38606;52.986;6.980;2024-01-07T04:20:29;6.28;;;4.00;;
52708;SDS011;38606;52.986;6.980;2024-01-07T04:22:55;6.93;;;3.97;;
52708;SDS011;38606;52.986;6.980;2024-01-07T04:25:22;9.02;;;4.43;;
52708;SDS011;38606;52.986;6.980;2024-01-07T04:27:48;6.78;;;4.30;;
52708;SDS011;38606;52.986;6.980;2024-01-07T04:30:14;5.22;;;3.75;;
52708;SDS011;38606;52.986;6.980;2024-01-07T04:32:40;5.25;;;3.33;;
52708;SDS011;38606;52.986;6.980;2024-01-07T04:35:06;6.60;;;3.20;;
52708;SDS011;38606;52.986;6.980;2024-01-07T04:37:32;5.47;;;3.50;;
52708;SDS011;38606;52.986;6.980;2024-01-07T04:39:58;8.02;;;3.95;;
52708;SDS011;38606;52.986;6.980;2024-01-07T04:42:25;4.07;;;3.00;;
52708;SDS011;38606;52.986;6.980;2024-01-07T04:44:51;4.75;;;2.80;;
52708;SDS011;38606;52.986;6.980;2024-01-07T04:47:30;7.05;;;3.08;;
52708;SDS011;38606;52.986;6.980;2024-01-07T04:49:59;6.45;;;2.92;;
52708;SDS011;38606;52.986;6.980;2024-01-07T04:52:25;4.93;;;3.03;;
52708;SDS011;38606;52.986;6.980;2024-01-07T04:54:51;4.88;;;2.78;;
52708;SDS011;38606;52.986;6.980;2024-01-07T04:57:18;7.45;;;3.13;;
52708;SDS011;38606;52.986;6.980;2024-01-07T04:59:44;5.05;;;3.25;;
52708;SDS011;38606;52.986;6.980;2024-01-07T05:02:10;5.10;;;2.88;;
52708;SDS011;38606;52.986;6.980;2024-01-07T05:04:37;5.18;;;2.88;;
52708;SDS011;38606;52.986;6.980;2024-01-07T05:07:03;5.30;;;2.85;;
52708;SDS011;38606;52.986;6.980;2024-01-07T05:09:29;4.80;;;2.80;;
52708;SDS011;38606;52.986;6.980;2024-01-07T05:11:55;3.25;;;2.53;;
52708;SDS011;38606;52.986;6.980;2024-01-07T05:14:21;6.15;;;3.22;;
52708;SDS011;38606;52.986;6.980;2024-01-07T05:16:48;5.65;;;3.22;;
52708;SDS011;38606;52.986;6.980;2024-01-07T05:19:14;4.45;;;2.72;;
52708;SDS011;38606;52.986;6.980;2024-01-07T05:21:40;6.22;;;3.17;;
52708;SDS011;38606;52.986;6.980;2024-01-07T05:24:06;6.70;;;2.80;;
52708;SDS011;38606;52.986;6.980;2024-01-07T05:26:38;4.18;;;2.40;;
52708;SDS011;38606;52.986;6.980;2024-01-07T05:29:05;4.57;;;2.80;;
52708;SDS011;38606;52.986;6.980;2024-01-07T05:31:30;4.95;;;2.35;;
52708;SDS011;38606;52.986;6.980;2024-01-07T05:33:57;6.07;;;3.03;;
52708;SDS011;38606;52.986;6.980;2024-01-07T05:36:23;4.95;;;2.30;;
52708;SDS011;38606;52.986;6.980;2024-01-07T05:38:49;4.22;;;2.10;;
52708;SDS011;38606;52.986;6.980;2024-01-07T05:41:15;3.63;;;2.00;;
52708;SDS011;38606;52.986;6.980;2024-01-07T05:43:41;4.72;;;2.00;;
52708;SDS011;38606;52.986;6.980;2024-01-07T05:46:07;4.35;;;2.13;;
52708;SDS011;38606;52.986;6.980;2024-01-07T05:48:43;5.75;;;2.00;;
52708;SDS011;38606;52.986;6.980;2024-01-07T05:51:09;3.63;;;2.20;;
52708;SDS011;38606;52.986;6.980;2024-01-07T05:53:35;3.70;;;2.20;;
52708;SDS011;38606;52.986;6.980;2024-01-07T05:56:01;5.85;;;2.20;;
52708;SDS011;38606;52.986;6.980;2024-01-07T05:58:28;6.50;;;1.92;;
52708;SDS011;38606;52.986;6.980;2024-01-07T06:00:54;3.33;;;2.20;;
52708;SDS011;38606;52.986;6.980;2024-01-07T06:03:20;4.57;;;2.13;;
52708;SDS011;38606;52.986;6.980;2024-01-07T06:05:46;4.95;;;2.22;;
52708;SDS011;38606;52.986;6.980;2024-01-07T06:08:12;2.45;;;1.50;;
52708;SDS011;38606;52.986;6.980;2024-01-07T06:10:41;5.13;;;1.95;;
52708;SDS011;38606;52.986;6.980;2024-01-07T06:13:08;2.85;;;1.73;;
52708;SDS011;38606;52.986;6.980;2024-01-07T06:15:34;5.93;;;2.20;;
52708;SDS011;38606;52.986;6.980;2024-01-07T06:18:00;4.85;;;2.13;;
52708;SDS011;38606;52.986;6.980;2024-01-07T06:20:27;4.15;;;1.52;;
52708;SDS011;38606;52.986;6.980;2024-01-07T06:22:53;3.65;;;2.10;;
52708;SDS011;38606;52.986;6.980;2024-01-07T06:25:19;4.78;;;1.80;;
52708;SDS011;38606;52.986;6.980;2024-01-07T06:27:45;3.47;;;1.70;;
52708;SDS011;38606;52.986;6.980;2024-01-07T06:30:11;3.03;;;1.85;;
52708;SDS011;38606;52.986;6.980;2024-01-07T06:32:38;5.47;;;1.90;;
52708;SDS011;38606;52.986;6.980;2024-01-07T06:35:04;4.88;;;2.65;;
52708;SDS011;38606;52.986;6.980;2024-01-07T06:37:30;3.75;;;2.00;;
52708;SDS011;38606;52.986;6.980;2024-01-07T06:39:57;3.50;;;2.25;;
52708;SDS011;38606;52.986;6.980;2024-01-07T06:42:23;5.45;;;1.90;;
52708;SDS011;38606;52.986;6.980;2024-01-07T06:44:49;4.45;;;1.70;;
52708;SDS011;38606;52.986;6.980;2024-01-07T06:47:15;3.72;;;1.83;;
52708;SDS011;38606;52.986;6.980;2024-01-07T06:49:41;5.85;;;3.25;;
52708;SDS011;38606;52.986;6.980;2024-01-07T06:52:07;3.03;;;1.67;;
52708;SDS011;38606;52.986;6.980;2024-01-07T06:54:34;2.92;;;1.70;;
52708;SDS011;38606;52.986;6.980;2024-01-07T06:56:59;2.58;;;1.80;;
52708;SDS011;38606;52.986;6.980;2024-01-07T06:59:25;4.40;;;1.45;;
52708;SDS011;38606;52.986;6.980;2024-01-07T07:01:51;3.65;;;1.60;;
52708;SDS011;38606;52.986;6.980;2024-01-07T07:04:18;3.03;;;1.88;;
52708;SDS011;38606;52.986;6.980;2024-01-07T07:06:45;3.97;;;1.73;;
52708;SDS011;38606;52.986;6.980;2024-01-07T07:09:11;2.33;;;1.25;;
52708;SDS011;38606;52.986;6.980;2024-01-07T07:11:38;1.88;;;1.50;;
52708;SDS011;38606;52.986;6.980;2024-01-07T07:14:04;3.90;;;1.75;;
52708;SDS011;38606;52.986;6.980;2024-01-07T07:16:31;3.17;;;1.83;;
52708;SDS011;38606;52.986;6.980;2024-01-07T07:18:57;3.42;;;1.45;;
52708;SDS011;38606;52.986;6.980;2024-01-07T07:21:23;4.15;;;1.52;;
52708;SDS011;38606;52.986;6.980;2024-01-07T07:23:49;2.50;;;1.50;;
52708;SDS011;38606;52.986;6.980;2024-01-07T07:26:15;1.80;;;1.30;;
52708;SDS011;38606;52.986;6.980;2024-01-07T07:28:41;2.28;;;1.58;;
52708;SDS011;38606;52.986;6.980;2024-01-07T07:31:07;3.63;;;1.58;;
52708;SDS011;38606;52.986;6.980;2024-01-07T07:33:33;3.25;;;1.70;;
52708;SDS011;38606;52.986;6.980;2024-01-07T07:35:59;2.25;;;1.45;;
52708;SDS011;38606;52.986;6.980;2024-01-07T07:38:25;4.28;;;1.38;;
52708;SDS011;38606;52.986;6.980;2024-01-07T07:40:51;2.60;;;1.73;;
52708;SDS011;38606;52.986;6.980;2024-01-07T07:43:21;3.97;;;1.80;;
52708;SDS011;38606;52.986;6.980;2024-01-07T07:45:46;4.03;;;1.52;;
52708;SDS011;38606;52.986;6.980;2024-01-07T07:48:13;3.95;;;1.67;;
52708;SDS011;38606;52.986;6.980;2024-01-07T07:50:39;4.82;;;1.80;;
52708;SDS011;38606;52.986;6.980;2024-01-07T07:53:05;3.55;;;1.70;;
52708;SDS011;38606;52.986;6.980;2024-01-07T07:55:32;2.08;;;1.50;;
52708;SDS011;38606;52.986;6.980;2024-01-07T07:57:58;3.78;;;1.40;;
52708;SDS011;38606;52.986;6.980;2024-01-07T08:00:24;2.95;;;1.40;;
52708;SDS011;38606;52.986;6.980;2024-01-07T08:02:50;5.60;;;2.35;;
52708;SDS011;38606;52.986;6.980;2024-01-07T08:05:15;2.88;;;2.22;;
52708;SDS011;38606;52.986;6.980;2024-01-07T08:07:42;3.30;;;2.30;;
52708;SDS011;38606;52.986;6.980;2024-01-07T08:10:08;3.60;;;1.90;;
52708;SDS011;38606;52.986;6.980;2024-01-07T08:12:34;3.53;;;1.73;;
52708;SDS011;38606;52.986;6.980;2024-01-07T08:15:00;2.88;;;1.30;;
52708;SDS011;38606;52.986;6.980;2024-01-07T08:17:26;3.88;;;1.52;;
52708;SDS011;38606;52.986;6.980;2024-01-07T08:19:53;4.93;;;2.10;;
52708;SDS011;38606;52.986;6.980;2024-01-07T08:22:19;3.17;;;1.52;;
52708;SDS011;38606;52.986;6.980;2024-01-07T08:24:45;2.88;;;1.58;;
52708;SDS011;38606;52.986;6.980;2024-01-07T08:27:12;2.33;;;1.58;;
52708;SDS011;38606;52.986;6.980;2024-01-07T08:29:38;2.28;;;1.52;;
52708;SDS011;38606;52.986;6.980;2024-01-07T08:32:04;4.25;;;1.60;;
52708;SDS011;38606;52.986;6.980;2024-01-07T08:34:30;3.13;;;1.80;;
52708;SDS011;38606;52.986;6.980;2024-01-07T08:36:56;3.05;;;1.50;;
52708;SDS011;38606;52.986;6.980;2024-01-07T08:39:22;3.53;;;1.75;;
52708;SDS011;38606;52.986;6.980;2024-01-07T08:41:50;3.45;;;1.35;;
52708;SDS011;38606;52.986;6.980;2024-01-07T08:44:17;13.25;;;1.88;;
52708;SDS011;38606;52.986;6.980;2024-01-07T08:46:43;3.20;;;1.50;;
52708;SDS011;38606;52.986;6.980;2024-01-07T08:49:10;3.95;;;1.60;;
52708;SDS011;38606;52.986;6.980;2024-01-07T08:51:36;3.25;;;1.35;;
52708;SDS011;38606;52.986;6.980;2024-01-07T08:54:03;5.10;;;1.50;;
52708;SDS011;38606;52.986;6.980;2024-01-07T08:56:29;5.60;;;1.92;;
52708;SDS011;38606;52.986;6.980;2024-01-07T08:58:55;1.55;;;1.30;;
52708;SDS011;38606;52.986;6.980;2024-01-07T09:01:21;2.70;;;1.58;;
52708;SDS011;38606;52.986;6.980;2024-01-07T09:03:47;3.70;;;1.45;;
52708;SDS011;38606;52.986;6.980;2024-01-07T09:06:13;2.95;;;1.48;;
52708;SDS011;38606;52.986;6.980;2024-01-07T09:08:39;1.63;;;1.30;;
52708;SDS011;38606;52.986;6.980;2024-01-07T09:11:05;3.78;;;1.00;;
52708;SDS011;38606;52.986;6.980;2024-01-07T09:13:32;4.78;;;1.73;;
52708;SDS011;38606;52.986;6.980;2024-01-07T09:15:58;5.75;;;1.20;;
52708;SDS011;38606;52.986;6.980;2024-01-07T09:18:24;1.70;;;1.20;;
52708;SDS011;38606;52.986;6.980;2024-01-07T09:20:50;1.77;;;1.30;;
52708;SDS011;38606;52.986;6.980;2024-01-07T09:23:16;4.13;;;1.50;;
52708;SDS011;38606;52.986;6.980;2024-01-07T09:25:42;1.77;;;1.25;;
52708;SDS011;38606;52.986;6.980;2024-01-07T09:28:08;3.10;;;1.40;;
52708;SDS011;38606;52.986;6.980;2024-01-07T09:30:34;4.05;;;1.73;;
52708;SDS011;38606;52.986;6.980;2024-01-07T09:33:00;4.22;;;1.52;;
52708;SDS011;38606;52.986;6.980;2024-01-07T09:35:26;4.75;;;1.60;;
52708;SDS011;38606;52.986;6.980;2024-01-07T09:37:52;4.32;;;1.63;;
52708;SDS011;38606;52.986;6.980;2024-01-07T09:40:19;3.70;;;1.70;;
52708;SDS011;38606;52.986;6.980;2024-01-07T09:42:45;3.75;;;1.60;;
52708;SDS011;38606;52.986;6.980;2024-01-07T09:45:12;4.95;;;1.48;;
52708;SDS011;38606;52.986;6.980;2024-01-07T09:47:42;1.77;;;1.45;;
52708;SDS011;38606;52.986;6.980;2024-01-07T09:50:11;3.80;;;1.73;;
52708;SDS011;38606;52.986;6.980;2024-01-07T09:52:38;2.70;;;1.42;;
52708;SDS011;38606;52.986;6.980;2024-01-07T09:55:07;4.13;;;1.70;;
52708;SDS011;38606;52.986;6.980;2024-01-07T09:57:34;3.63;;;1.73;;
52708;SDS011;38606;52.986;6.980;2024-01-07T10:00:01;3.25;;;1.52;;
52708;SDS011;38606;52.986;6.980;2024-01-07T10:02:27;2.88;;;1.73;;
52708;SDS011;38606;52.986;6.980;2024-01-07T10:04:53;3.35;;;1.58;;
52708;SDS011;38606;52.986;6.980;2024-01-07T10:07:19;4.93;;;1.60;;
52708;SDS011;38606;52.986;6.980;2024-01-07T10:09:45;4.63;;;2.42;;
52708;SDS011;38606;52.986;6.980;2024-01-07T10:12:11;2.97;;;1.60;;
52708;SDS011;38606;52.986;6.980;2024-01-07T10:14:38;3.67;;;1.75;;
52708;SDS011;38606;52.986;6.980;2024-01-07T10:17:25;3.70;;;1.65;;
52708;SDS011;38606;52.986;6.980;2024-01-07T10:19:53;6.15;;;2.00;;
52708;SDS011;38606;52.986;6.980;2024-01-07T10:22:19;4.85;;;1.60;;
52708;SDS011;38606;52.986;6.980;2024-01-07T10:24:45;4.97;;;2.15;;
52708;SDS011;38606;52.986;6.980;2024-01-07T10:27:13;2.58;;;1.60;;
52708;SDS011;38606;52.986;6.980;2024-01-07T10:29:39;3.30;;;1.80;;
52708;SDS011;38606;52.986;6.980;2024-01-07T10:32:05;3.25;;;1.55;;
52708;SDS011;38606;52.986;6.980;2024-01-07T10:34:32;7.78;;;2.08;;
52708;SDS011;38606;52.986;6.980;2024-01-07T10:36:59;3.85;;;1.63;;
52708;SDS011;38606;52.986;6.980;2024-01-07T10:39:26;2.97;;;1.50;;
52708;SDS011;38606;52.986;6.980;2024-01-07T10:41:52;2.88;;;1.33;;
52708;SDS011;38606;52.986;6.980;2024-01-07T10:44:26;2.85;;;1.48;;
52708;SDS011;38606;52.986;6.980;2024-01-07T10:46:54;4.75;;;1.52;;
52708;SDS011;38606;52.986;6.980;2024-01-07T10:49:24;2.17;;;1.27;;
52708;SDS011;38606;52.986;6.980;2024-01-07T10:54:33;1.65;;;1.55;;
52708;SDS011;38606;52.986;6.980;2024-01-07T10:57:06;3.78;;;1.50;;
52708;SDS011;38606;52.986;6.980;2024-01-07T10:59:50;2.25;;;1.30;;
52708;SDS011;38606;52.986;6.980;2024-01-07T11:02:18;3.30;;;1.38;;
52708;SDS011;38606;52.986;6.980;2024-01-07T11:04:50;1.52;;;1.42;;
52708;SDS011;38606;52.986;6.980;2024-01-07T11:12:14;3.22;;;1.73;;
52708;SDS011;38606;52.986;6.980;2024-01-07T11:14:41;4.28;;;1.90;;
52708;SDS011;38606;52.986;6.980;2024-01-07T11:17:12;5.28;;;1.38;;
52708;SDS011;38606;52.986;6.980;2024-01-07T11:19:42;4.57;;;2.00;;
52708;SDS011;38606;52.986;6.980;2024-01-07T11:22:27;3.17;;;1.90;;
52708;SDS011;38606;52.986;6.980;2024-01-07T11:24:53;2.22;;;1.90;;
52708;SDS011;38606;52.986;6.980;2024-01-07T11:27:23;5.65;;;2.30;;
52708;SDS011;38606;52.986;6.980;2024-01-07T11:30:07;4.47;;;1.90;;
52708;SDS011;38606;52.986;6.980;2024-01-07T11:32:44;3.55;;;2.15;;
52708;SDS011;38606;52.986;6.980;2024-01-07T11:35:13;4.35;;;2.25;;
52708;SDS011;38606;52.986;6.980;2024-01-07T11:37:41;4.25;;;2.17;;
52708;SDS011;38606;52.986;6.980;2024-01-07T11:40:07;3.22;;;2.33;;
52708;SDS011;38606;52.986;6.980;2024-01-07T11:42:33;4.75;;;2.50;;
52708;SDS011;38606;52.986;6.980;2024-01-07T11:44:59;4.40;;;2.63;;
52708;SDS011;38606;52.986;6.980;2024-01-07T11:47:25;9.38;;;3.40;;
52708;SDS011;38606;52.986;6.980;2024-01-07T11:49:53;5.13;;;2.97;;
52708;SDS011;38606;52.986;6.980;2024-01-07T11:52:19;8.50;;;3.45;;
52708;SDS011;38606;52.986;6.980;2024-01-07T11:54:45;6.60;;;3.40;;
52708;SDS011;38606;52.986;6.980;2024-01-07T11:57:13;5.30;;;3.00;;
52708;SDS011;38606;52.986;6.980;2024-01-07T11:59:39;8.40;;;3.70;;
52708;SDS011;38606;52.986;6.980;2024-01-07T12:02:05;6.85;;;3.45;;
52708;SDS011;38606;52.986;6.980;2024-01-07T12:04:31;7.82;;;4.05;;
52708;SDS011;38606;52.986;6.980;2024-01-07T12:06:58;7.13;;;3.90;;
52708;SDS011;38606;52.986;6.980;2024-01-07T12:09:25;6.50;;;3.60;;
52708;SDS011;38606;52.986;6.980;2024-01-07T12:11:51;8.07;;;3.55;;
52708;SDS011;38606;52.986;6.980;2024-01-07T12:14:18;5.68;;;3.80;;
52708;SDS011;38606;52.986;6.980;2024-01-07T12:16:44;7.82;;;4.18;;
52708;SDS011;38606;52.986;6.980;2024-01-07T12:19:12;6.82;;;3.35;;
52708;SDS011;38606;52.986;6.980;2024-01-07T12:21:38;6.18;;;3.53;;
52708;SDS011;38606;52.986;6.980;2024-01-07T12:24:05;5.32;;;3.33;;
52708;SDS011;38606;52.986;6.980;2024-01-07T12:26:31;7.65;;;3.50;;
52708;SDS011;38606;52.986;6.980;2024-01-07T12:28:58;11.52;;;4.28;;
52708;SDS011;38606;52.986;6.980;2024-01-07T12:31:31;7.68;;;3.63;;
52708;SDS011;38606;52.986;6.980;2024-01-07T12:33:58;7.55;;;3.78;;
52708;SDS011;38606;52.986;6.980;2024-01-07T12:36:24;6.72;;;3.53;;
52708;SDS011;38606;52.986;6.980;2024-01-07T12:38:50;8.55;;;3.67;;
52708;SDS011;38606;52.986;6.980;2024-01-07T12:41:19;4.65;;;3.63;;
52708;SDS011;38606;52.986;6.980;2024-01-07T12:43:48;4.82;;;3.50;;
52708;SDS011;38606;52.986;6.980;2024-01-07T12:46:15;9.77;;;4.03;;
52708;SDS011;38606;52.986;6.980;2024-01-07T12:48:41;7.60;;;3.58;;
52708;SDS011;38606;52.986;6.980;2024-01-07T12:51:07;5.43;;;3.33;;
52708;SDS011;38606;52.986;6.980;2024-01-07T12:53:33;11.05;;;3.47;;
52708;SDS011;38606;52.986;6.980;2024-01-07T12:55:59;7.90;;;3.03;;
52708;SDS011;38606;52.986;6.980;2024-01-07T12:58:25;5.13;;;3.17;;
52708;SDS011;38606;52.986;6.980;2024-01-07T13:00:51;5.25;;;3.10;;
52708;SDS011;38606;52.986;6.980;2024-01-07T13:03:17;7.22;;;3.47;;
52708;SDS011;38606;52.986;6.980;2024-01-07T13:05:44;7.43;;;4.03;;
52708;SDS011;38606;52.986;6.980;2024-01-07T13:08:11;7.20;;;3.55;;
52708;SDS011;38606;52.986;6.980;2024-01-07T13:10:38;6.90;;;3.28;;
52708;SDS011;38606;52.986;6.980;2024-01-07T13:13:04;10.18;;;3.90;;
52708;SDS011;38606;52.986;6.980;2024-01-07T13:15:30;9.90;;;3.70;;
52708;SDS011;38606;52.986;6.980;2024-01-07T13:17:56;5.53;;;3.33;;
52708;SDS011;38606;52.986;6.980;2024-01-07T13:20:22;5.30;;;3.40;;
52708;SDS011;38606;52.986;6.980;2024-01-07T13:22:49;8.57;;;3.83;;
52708;SDS011;38606;52.986;6.980;2024-01-07T13:25:15;6.43;;;3.38;;
52708;SDS011;38606;52.986;6.980;2024-01-07T13:27:40;6.45;;;3.50;;
52708;SDS011;38606;52.986;6.980;2024-01-07T13:30:09;8.70;;;4.07;;
52708;SDS011;38606;52.986;6.980;2024-01-07T13:32:36;10.20;;;4.03;;
52708;SDS011;38606;52.986;6.980;2024-01-07T13:35:05;7.00;;;3.92;;
52708;SDS011;38606;52.986;6.980;2024-01-07T13:40:01;9.32;;;4.55;;
52708;SDS011;38606;52.986;6.980;2024-01-07T13:42:29;9.05;;;4.05;;
52708;SDS011;38606;52.986;6.980;2024-01-07T13:44:55;7.47;;;3.50;;
52708;SDS011;38606;52.986;6.980;2024-01-07T13:47:20;8.10;;;3.75;;
52708;SDS011;38606;52.986;6.980;2024-01-07T13:49:47;10.95;;;3.85;;
52708;SDS011;38606;52.986;6.980;2024-01-07T13:52:12;8.30;;;4.18;;
52708;SDS011;38606;52.986;6.980;2024-01-07T13:54:38;8.63;;;4.20;;
52708;SDS011;38606;52.986;6.980;2024-01-07T13:57:04;7.10;;;3.25;;
52708;SDS011;38606;52.986;6.980;2024-01-07T13:59:30;7.85;;;3.92;;
52708;SDS011;38606;52.986;6.980;2024-01-07T14:01:56;7.13;;;3.88;;
52708;SDS011;38606;52.986;6.980;2024-01-07T14:04:24;9.57;;;3.80;;
52708;SDS011;38606;52.986;6.980;2024-01-07T14:06:54;7.72;;;3.67;;
52708;SDS011;38606;52.986;6.980;2024-01-07T14:09:21;6.22;;;3.42;;
52708;SDS011;38606;52.986;6.980;2024-01-07T14:11:47;9.30;;;5.10;;
52708;SDS011;38606;52.986;6.980;2024-01-07T14:14:13;7.95;;;3.17;;
52708;SDS011;38606;52.986;6.980;2024-01-07T14:16:39;6.75;;;3.38;;
52708;SDS011;38606;52.986;6.980;2024-01-07T14:19:05;9.18;;;4.50;;
52708;SDS011;38606;52.986;6.980;2024-01-07T14:21:31;8.35;;;4.13;;
52708;SDS011;38606;52.986;6.980;2024-01-07T14:23:57;12.68;;;4.20;;
52708;SDS011;38606;52.986;6.980;2024-01-07T14:26:23;8.27;;;3.90;;
52708;SDS011;38606;52.986;6.980;2024-01-07T14:28:50;7.03;;;3.80;;
52708;SDS011;38606;52.986;6.980;2024-01-07T14:31:16;5.32;;;3.53;;
52708;SDS011;38606;52.986;6.980;2024-01-07T14:33:42;8.13;;;3.65;;
52708;SDS011;38606;52.986;6.980;2024-01-07T14:36:09;7.93;;;3.40;;
52708;SDS011;38606;52.986;6.980;2024-01-07T14:38:42;7.57;;;3.88;;
52708;SDS011;38606;52.986;6.980;2024-01-07T14:41:09;9.27;;;3.95;;
52708;SDS011;38606;52.986;6.980;2024-01-07T14:43:35;7.95;;;3.95;;
52708;SDS011;38606;52.986;6.980;2024-01-07T14:46:02;9.43;;;3.83;;
52708;SDS011;38606;52.986;6.980;2024-01-07T14:48:28;11.32;;;3.85;;
52708;SDS011;38606;52.986;6.980;2024-01-07T14:50:55;10.95;;;4.22;;